Time;durP1;ratioP1;P1;durP2;ratioP2;P2;SDS_P1;SDS_P2;PMS_P1;PMS_P2;Temp;Humidity;BMP_temperature;BMP_pressure;BME280_temperature;BME280_humidity;BME280_pressure;Samples;Min_cycle;Max_cycle;Signal;HPM_P1;HPM_P2
2024/03/02 00:02:45;;;;;;;20.88;13.45;;;5.00;1.00;;;;;;5088816;28;20276;-80
2024/03/02 00:05:33;;;;;;;19.33;11.98;;;4.90;1.00;;;;;;5107363;28;20401;-78
2024/03/02 00:08:25;;;;;;;21.42;12.93;;;4.90;1.00;;;;;;5097871;27;20075;-80
2024/03/02 00:11:15;;;;;;;20.33;12.48;;;5.00;1.00;;;;;;5103190;28;20043;-79
2024/03/02 00:14:03;;;;;;;21.02;13.75;;;5.00;1.00;;;;;;5094926;28;20039;-79
2024/03/02 00:16:53;;;;;;;19.38;13.40;;;4.90;99.90;;;;;;5103001;27;20054;-82
2024/03/02 00:19:40;;;;;;;20.55;13.70;;;4.90;99.90;;;;;;5087970;27;20057;-78
2024/03/02 00:22:28;;;;;;;23.10;14.98;;;5.00;99.90;;;;;;5111699;27;20040;-79
2024/03/02 00:25:16;;;;;;;21.55;13.90;;;4.90;99.90;;;;;;5096242;27;20051;-79
2024/03/02 00:28:07;;;;;;;22.73;13.38;;;4.90;99.90;;;;;;5101551;28;20147;-79
2024/03/02 00:30:59;;;;;;;22.02;14.88;;;4.90;99.90;;;;;;5098815;27;20477;-81
2024/03/02 00:33:48;;;;;;;23.73;14.60;;;4.80;99.90;;;;;;5105143;28;20119;-76
2024/03/02 00:36:36;;;;;;;22.77;14.02;;;4.80;99.90;;;;;;5079132;28;20047;-78
2024/03/02 00:39:24;;;;;;;21.75;13.98;;;4.70;99.90;;;;;;5115630;27;20059;-82
2024/03/02 00:42:13;;;;;;;26.33;14.95;;;4.70;99.90;;;;;;5105025;28;20050;-76
2024/03/02 00:45:00;;;;;;;21.45;14.52;;;4.70;99.90;;;;;;5110455;27;20867;-81
2024/03/02 00:47:48;;;;;;;23.63;15.05;;;4.60;99.90;;;;;;5103645;28;20075;-78
2024/03/02 00:50:38;;;;;;;22.55;14.35;;;4.50;99.90;;;;;;5107538;27;20183;-80
2024/03/02 00:53:26;;;;;;;26.20;15.25;;;4.40;1.00;;;;;;5100067;27;20048;-81
2024/03/02 00:56:14;;;;;;;28.65;16.17;;;4.40;1.00;;;;;;5108853;27;20494;-79
2024/03/02 00:59:02;;;;;;;26.70;16.75;;;4.30;1.00;;;;;;5110690;27;20039;-81
2024/03/02 01:01:50;;;;;;;26.83;16.90;;;4.40;1.00;;;;;;5110483;27;20113;-82
2024/03/02 01:04:38;;;;;;;25.55;16.73;;;4.40;1.00;;;;;;5115008;27;20051;-80
2024/03/02 01:07:25;;;;;;;28.88;18.70;;;4.30;29.30;;;;;;5122118;27;20464;-77
2024/03/02 01:10:13;;;;;;;30.20;19.08;;;4.40;99.90;;;;;;5096038;27;20040;-78
2024/03/02 01:13:01;;;;;;;33.75;19.25;;;4.40;99.90;;;;;;5114229;27;20582;-83
2024/03/02 01:15:51;;;;;;;31.67;19.27;;;4.50;99.90;;;;;;5117799;27;20074;-80
2024/03/02 01:18:41;;;;;;;34.40;20.80;;;4.60;99.90;;;;;;5116883;27;20047;-79
2024/03/02 01:21:32;;;;;;;37.85;21.27;;;4.70;99.90;;;;;;5111120;27;20058;-76
2024/03/02 01:24:20;;;;;;;32.40;20.13;;;4.70;99.90;;;;;;5117123;27;20098;-80
2024/03/02 01:27:08;;;;;;;35.72;19.48;;;4.60;99.90;;;;;;5104597;27;20393;-81
2024/03/02 01:29:59;;;;;;;33.17;20.85;;;4.50;99.90;;;;;;5114649;27;20043;-81
2024/03/02 01:32:47;;;;;;;37.05;21.23;;;4.50;99.90;;;;;;5100762;27;20050;-79
2024/03/02 01:35:35;;;;;;;37.45;21.40;;;4.50;99.90;;;;;;5121255;27;20039;-80
2024/03/02 01:38:23;;;;;;;36.75;20.98;;;4.50;1.00;;;;;;5111568;27;20067;-79
2024/03/02 01:41:11;;;;;;;41.20;23.05;;;4.50;1.00;;;;;;5123417;27;20107;-77
2024/03/02 01:43:59;;;;;;;37.20;21.48;;;4.40;1.00;;;;;;5115967;28;20032;-79
2024/03/02 01:46:46;;;;;;;39.53;21.58;;;4.30;1.00;;;;;;5101416;27;20054;-82
2024/03/02 01:49:34;;;;;;;41.92;23.05;;;4.20;1.00;;;;;;5098487;27;20088;-80
2024/03/02 01:52:21;;;;;;;44.08;24.52;;;4.20;99.90;;;;;;5120618;27;20038;-77
2024/03/02 01:55:09;;;;;;;42.40;23.27;;;4.30;99.90;;;;;;5121766;27;20081;-78
2024/03/02 01:57:57;;;;;;;45.30;24.90;;;4.60;1.00;;;;;;5113168;27;20047;-76
2024/03/02 02:00:47;;;;;;;41.55;23.73;;;4.60;99.90;;;;;;5112531;28;20047;-78
2024/03/02 02:03:36;;;;;;;38.95;22.50;;;4.70;99.90;;;;;;5101458;27;20131;-79
2024/03/02 02:06:24;;;;;;;36.80;22.17;;;4.70;99.90;;;;;;5119928;27;20109;-78
2024/03/02 02:09:12;;;;;;;34.75;21.85;;;4.80;99.90;;;;;;5108713;27;20079;-77
2024/03/02 02:12:00;;;;;;;35.83;22.30;;;4.80;99.90;;;;;;5104561;28;20051;-78
2024/03/02 02:14:51;;;;;;;35.03;21.95;;;4.80;99.90;;;;;;5128929;28;20041;-78
2024/03/02 02:17:39;;;;;;;36.45;21.55;;;4.90;97.10;;;;;;5119112;27;20050;-79
2024/03/02 02:20:27;;;;;;;38.08;21.88;;;4.90;32.80;;;;;;5105460;27;20120;-77
2024/03/02 02:23:15;;;;;;;32.08;20.77;;;5.00;1.00;;;;;;5092708;28;20043;-78
2024/03/02 02:26:04;;;;;;;37.83;22.17;;;5.00;1.00;;;;;;5091896;27;20546;-81
2024/03/02 02:28:54;;;;;;;35.72;21.20;;;5.00;1.00;;;;;;5094302;27;20047;-82
2024/03/02 02:31:42;;;;;;;39.92;22.60;;;4.90;99.90;;;;;;5088766;27;20062;-79
2024/03/02 02:34:29;;;;;;;38.63;21.58;;;4.80;99.90;;;;;;5097882;27;20044;-80
2024/03/02 02:37:18;;;;;;;37.28;21.92;;;4.80;99.90;;;;;;5104550;28;20362;-78
2024/03/02 02:40:07;;;;;;;36.08;22.65;;;4.80;99.90;;;;;;5104878;27;20036;-80
2024/03/02 02:42:57;;;;;;;38.00;21.63;;;4.90;99.90;;;;;;5115282;27;20061;-80
2024/03/02 02:45:44;;;;;;;33.53;20.25;;;4.90;99.90;;;;;;5102346;28;20047;-79
2024/03/02 02:48:32;;;;;;;33.58;19.95;;;4.90;99.90;;;;;;5092557;28;20097;-78
2024/03/02 02:51:19;;;;;;;36.15;22.15;;;4.80;99.90;;;;;;5114487;27;20046;-78
2024/03/02 02:54:07;;;;;;;39.42;21.67;;;4.60;99.90;;;;;;5094497;27;20156;-82
2024/03/02 02:56:55;;;;;;;41.67;21.65;;;4.50;99.90;;;;;;5110712;27;21035;-77
2024/03/02 02:59:42;;;;;;;38.22;21.83;;;4.50;99.90;;;;;;5104277;28;20054;-79
2024/03/02 03:02:29;;;;;;;40.92;23.20;;;4.50;99.90;;;;;;5101996;28;20103;-78
2024/03/02 03:05:18;;;;;;;41.20;21.63;;;4.50;1.00;;;;;;5085404;28;20094;-78
2024/03/02 03:08:06;;;;;;;38.90;22.23;;;4.40;1.00;;;;;;5107042;27;20127;-80
2024/03/02 03:11:00;;;;;;;39.92;21.90;;;4.30;1.00;;;;;;5109300;28;20040;-79
2024/03/02 03:13:49;;;;;;;42.25;24.25;;;4.20;1.00;;;;;;5107521;28;20041;-79
2024/03/02 03:16:39;;;;;;;44.70;24.00;;;4.30;99.90;;;;;;5109924;28;20568;-79
2024/03/02 03:19:28;;;;;;;43.13;24.52;;;4.50;99.90;;;;;;5086814;28;20074;-82
2024/03/02 03:22:17;;;;;;;36.17;21.58;;;4.50;99.90;;;;;;5105854;28;20054;-79
2024/03/02 03:25:10;;;;;;;40.63;23.35;;;4.60;99.90;;;;;;5094576;28;20050;-82
2024/03/02 03:27:58;;;;;;;35.35;21.23;;;4.50;99.90;;;;;;5100676;28;20489;-80
2024/03/02 03:30:46;;;;;;;39.35;22.88;;;4.50;99.90;;;;;;5112015;28;20058;-82
2024/03/02 03:33:34;;;;;;;39.15;22.40;;;4.60;99.90;;;;;;5112544;28;20074;-79
2024/03/02 03:36:21;;;;;;;37.53;21.77;;;4.60;99.90;;;;;;5102546;28;20105;-80
2024/03/02 03:39:10;;;;;;;42.30;22.70;;;4.60;99.90;;;;;;5112446;28;20130;-81
2024/03/02 03:41:57;;;;;;;34.95;19.52;;;4.40;99.90;;;;;;5106410;28;20546;-80
2024/03/02 03:44:45;;;;;;;38.45;21.80;;;4.40;99.90;;;;;;5110224;28;20055;-79
2024/03/02 03:47:33;;;;;;;36.78;20.92;;;4.20;93.10;;;;;;5094197;28;20043;-77
2024/03/02 03:50:21;;;;;;;35.45;21.15;;;4.10;99.90;;;;;;5108126;27;20496;-80
2024/03/02 03:53:08;;;;;;;40.08;21.77;;;4.00;99.90;;;;;;5111559;27;20051;-80
2024/03/02 03:55:56;;;;;;;39.83;22.80;;;4.00;99.90;;;;;;5109142;27;20039;-81
2024/03/02 03:58:43;;;;;;;40.25;22.45;;;4.10;1.00;;;;;;5114075;28;20111;-76
2024/03/02 04:01:34;;;;;;;44.58;23.98;;;4.00;1.00;;;;;;5113044;27;20036;-77
2024/03/02 04:04:22;;;;;;;43.40;22.65;;;4.10;99.90;;;;;;5109157;27;20506;-81
2024/03/02 04:07:10;;;;;;;39.38;22.42;;;4.20;99.90;;;;;;5111893;28;20488;-79
2024/03/02 04:09:57;;;;;;;40.47;22.67;;;4.10;99.90;;;;;;5113307;27;20453;-79
2024/03/02 04:12:46;;;;;;;41.95;22.10;;;4.10;99.90;;;;;;5113499;27;20054;-80
2024/03/02 04:15:34;;;;;;;41.72;23.40;;;4.00;99.90;;;;;;5121483;27;20039;-82
2024/03/02 04:18:21;;;;;;;43.95;23.15;;;4.00;99.90;;;;;;5116570;27;20561;-80
2024/03/02 04:21:09;;;;;;;43.45;22.80;;;3.90;99.90;;;;;;5092605;28;20039;-81
2024/03/02 04:23:59;;;;;;;43.38;22.50;;;3.80;99.90;;;;;;5101553;27;20664;-79
2024/03/02 04:26:46;;;;;;;43.53;22.15;;;3.70;1.00;;;;;;5091929;28;20051;-81
2024/03/02 04:29:35;;;;;;;42.67;21.98;;;3.90;99.30;;;;;;5103506;27;20137;-80
2024/03/02 04:32:27;;;;;;;45.45;23.77;;;3.90;99.90;;;;;;5099011;28;20039;-78
2024/03/02 04:35:17;;;;;;;43.97;24.67;;;4.00;99.90;;;;;;5101925;27;20035;-77
2024/03/02 04:38:05;;;;;;;39.95;22.60;;;4.00;99.90;;;;;;5103836;27;20036;-80
2024/03/02 04:40:52;;;;;;;38.97;21.48;;;4.00;99.90;;;;;;5104468;27;20035;-81
2024/03/02 04:43:40;;;;;;;38.28;21.63;;;4.10;99.90;;;;;;5102912;27;20754;-81
2024/03/02 04:46:28;;;;;;;45.03;23.52;;;4.00;11.00;;;;;;5109414;27;20547;-80
2024/03/02 04:49:16;;;;;;;44.30;23.35;;;3.90;1.00;;;;;;5089815;28;20063;-79
2024/03/02 04:52:04;;;;;;;41.20;23.17;;;3.80;1.00;;;;;;5115365;27;20048;-81
2024/03/02 04:55:17;;;;;;;40.75;23.70;;;3.60;1.00;;;;;;5091816;28;20124;-81
2024/03/02 04:58:05;;;;;;;43.70;22.95;;;3.50;71.30;;;;;;5093698;28;20055;-81
2024/03/02 05:00:53;;;;;;;43.30;23.83;;;3.30;99.90;;;;;;5123967;28;20095;-78
2024/03/02 05:03:41;;;;;;;50.08;24.90;;;3.20;99.90;;;;;;5116737;27;20048;-78
2024/03/02 05:06:29;;;;;;;45.97;24.67;;;3.20;99.90;;;;;;5120898;27;20495;-78
2024/03/02 05:09:19;;;;;;;46.97;23.58;;;3.30;99.90;;;;;;5121957;27;20091;-77
2024/03/02 05:15:04;;;;;;;47.33;23.95;;;3.10;1.00;;;;;;5112188;28;20048;-79
2024/03/02 05:17:53;;;;;;;42.00;22.67;;;3.10;99.90;;;;;;5106356;27;20054;-78
2024/03/02 05:20:40;;;;;;;45.13;23.00;;;2.90;74.50;;;;;;5104692;28;20043;-78
2024/03/02 05:23:28;;;;;;;46.05;23.55;;;2.90;99.90;;;;;;5109104;28;20538;-79
2024/03/02 05:26:16;;;;;;;45.33;23.10;;;3.10;1.00;;;;;;5107546;28;20032;-80
2024/03/02 05:29:04;;;;;;;50.20;25.52;;;3.20;85.60;;;;;;5121653;27;20016;-78
2024/03/02 05:31:51;;;;;;;49.13;25.15;;;3.10;66.10;;;;;;5121879;27;20059;-77
2024/03/02 05:34:39;;;;;;;46.30;22.90;;;3.10;50.30;;;;;;5112558;27;20044;-78
2024/03/02 05:37:26;;;;;;;48.88;24.50;;;3.10;99.90;;;;;;5109052;27;20035;-79
2024/03/02 05:40:14;;;;;;;45.55;24.00;;;3.20;99.90;;;;;;5104219;27;20044;-81
2024/03/02 05:43:03;;;;;;;51.33;25.48;;;3.20;99.90;;;;;;5100498;28;20050;-80
2024/03/02 05:45:52;;;;;;;48.28;24.45;;;3.50;99.90;;;;;;5119942;27;20053;-80
2024/03/02 05:48:40;;;;;;;43.45;23.88;;;3.60;99.90;;;;;;5107757;27;20966;-79
2024/03/02 05:51:28;;;;;;;42.25;21.85;;;3.80;99.90;;;;;;5095894;28;20047;-77
2024/03/02 05:54:16;;;;;;;41.42;21.80;;;3.90;23.70;;;;;;5112092;28;20032;-82
2024/03/02 05:57:16;;;;;;;41.72;22.63;;;3.90;1.00;;;;;;5098992;27;20048;-79
2024/03/02 06:00:07;;;;;;;46.58;22.20;;;3.90;99.90;;;;;;5114674;27;20089;-82
2024/03/02 06:02:56;;;;;;;40.85;22.63;;;3.80;99.90;;;;;;5109662;27;20097;-82
2024/03/02 06:05:43;;;;;;;40.25;22.27;;;3.70;99.90;;;;;;5107751;27;20032;-78
2024/03/02 06:08:31;;;;;;;37.28;21.40;;;3.60;1.00;;;;;;5099155;27;20036;-80
2024/03/02 06:11:21;;;;;;;36.08;20.10;;;3.60;99.90;;;;;;5102567;27;20043;-79
2024/03/02 06:14:09;;;;;;;35.65;20.85;;;3.60;99.90;;;;;;5088062;28;20054;-79
2024/03/02 06:16:57;;;;;;;32.83;18.80;;;3.80;99.60;;;;;;5102811;27;20055;-82
2024/03/02 06:19:44;;;;;;;38.92;20.48;;;4.00;99.90;;;;;;5081659;28;20095;-81
2024/03/02 06:22:31;;;;;;;37.03;20.95;;;4.10;99.90;;;;;;5098361;27;20043;-80
2024/03/02 06:25:19;;;;;;;32.70;19.85;;;4.00;99.90;;;;;;5106297;27;20117;-81
2024/03/02 06:28:10;;;;;;;41.88;19.92;;;4.10;99.90;;;;;;5101863;28;20039;-80
2024/03/02 06:30:57;;;;;;;32.08;18.35;;;4.10;99.90;;;;;;5098144;27;20537;-81
2024/03/02 06:33:48;;;;;;;34.97;20.15;;;4.20;99.90;;;;;;5107163;27;20043;-81
2024/03/02 06:36:36;;;;;;;37.35;20.58;;;4.20;44.70;;;;;;5107795;27;20064;-78
2024/03/02 06:39:23;;;;;;;35.88;19.92;;;4.30;1.00;;;;;;5121759;27;20125;-80
2024/03/02 06:42:11;;;;;;;34.53;20.08;;;4.20;1.00;;;;;;5096756;28;20365;-79
2024/03/02 06:45:00;;;;;;;35.85;19.73;;;4.20;99.90;;;;;;5102407;27;20047;-80
2024/03/02 06:47:49;;;;;;;33.58;20.75;;;4.20;99.90;;;;;;5091370;28;20044;-83
2024/03/02 06:50:37;;;;;;;39.28;20.70;;;4.20;99.90;;;;;;5109471;27;20108;-77
2024/03/02 06:53:25;;;;;;;37.75;22.75;;;4.20;99.90;;;;;;5110459;27;20096;-81
2024/03/02 06:56:12;;;;;;;39.90;22.40;;;4.10;99.90;;;;;;5100518;28;20035;-82
2024/03/02 06:59:04;;;;;;;42.35;23.15;;;4.20;99.90;;;;;;5097128;28;20453;-82
2024/03/02 07:01:52;;;;;;;40.42;23.67;;;4.20;99.90;;;;;;5098977;27;20473;-80
2024/03/02 07:04:39;;;;;;;42.72;23.63;;;4.30;99.90;;;;;;5097782;28;20079;-80
2024/03/02 07:07:29;;;;;;;35.45;22.00;;;4.50;95.10;;;;;;5086214;28;20123;-81
2024/03/02 07:10:16;;;;;;;36.28;21.13;;;4.70;1.00;;;;;;5083116;28;20122;-78
2024/03/02 07:13:03;;;;;;;31.42;19.60;;;4.80;99.90;;;;;;5102498;27;20513;-77
2024/03/02 07:18:51;;;;;;;32.88;18.90;;;5.40;33.70;;;;;;5095914;28;20135;-78
2024/03/02 07:21:42;;;;;;;31.10;18.73;;;5.50;99.90;;;;;;5105912;28;20486;-78
2024/03/02 07:24:30;;;;;;;28.23;17.27;;;5.20;99.90;;;;;;5105850;27;20122;-79
2024/03/02 07:27:18;;;;;;;29.60;17.92;;;5.10;1.00;;;;;;5105607;27;20043;-79
2024/03/02 07:30:06;;;;;;;29.63;18.23;;;5.00;1.00;;;;;;5105125;27;20052;-79
2024/03/02 07:32:54;;;;;;;21.98;14.27;;;5.00;99.90;;;;;;5099388;27;20122;-78
2024/03/02 07:35:43;;;;;;;19.88;13.05;;;5.00;99.90;;;;;;5098154;27;20050;-81
2024/03/02 07:38:31;;;;;;;23.85;13.63;;;5.10;99.90;;;;;;5100983;27;20044;-80
2024/03/02 07:41:18;;;;;;;21.90;13.20;;;5.20;99.50;;;;;;5104515;27;20049;-78
2024/03/02 07:44:07;;;;;;;18.23;10.77;;;5.20;1.00;;;;;;5107180;27;20040;-79
2024/03/02 07:46:56;;;;;;;17.08;10.82;;;5.30;1.00;;;;;;5090783;27;20214;-80
2024/03/02 07:49:46;;;;;;;15.77;10.32;;;5.40;99.90;;;;;;5102518;27;20483;-80
2024/03/02 07:52:34;;;;;;;13.90;9.73;;;5.50;99.90;;;;;;5109437;27;20036;-79
2024/03/02 07:55:25;;;;;;;20.17;9.52;;;5.60;99.90;;;;;;5101416;27;20039;-81
2024/03/02 07:58:13;;;;;;;17.75;10.18;;;5.70;1.00;;;;;;5100129;27;20044;-81
2024/03/02 08:01:01;;;;;;;12.90;8.75;;;5.80;1.00;;;;;;5115163;27;20035;-79
2024/03/02 08:03:52;;;;;;;16.60;10.32;;;5.90;99.90;;;;;;5104398;27;20035;-76
2024/03/02 08:06:40;;;;;;;18.05;11.40;;;6.10;99.90;;;;;;5124859;27;20058;-78
2024/03/02 08:09:28;;;;;;;17.85;11.65;;;6.30;99.90;;;;;;5091457;28;20126;-75
2024/03/02 08:12:15;;;;;;;17.88;11.88;;;6.40;39.70;;;;;;5117409;27;20115;-79
2024/03/02 08:15:04;;;;;;;20.65;12.65;;;6.50;1.00;;;;;;5110756;27;20564;-76
2024/03/02 08:17:51;;;;;;;19.38;11.63;;;6.90;1.00;;;;;;5124864;27;20032;-78
2024/03/02 08:20:40;;;;;;;16.42;10.40;;;7.40;1.00;;;;;;5101315;27;20028;-78
2024/03/02 08:23:27;;;;;;;17.60;9.98;;;7.80;1.00;;;;;;5108413;28;20048;-78
2024/03/02 08:26:16;;;;;;;13.25;9.23;;;8.30;99.90;;;;;;5113242;27;20041;-76
2024/03/02 08:29:04;;;;;;;14.60;9.30;;;9.00;99.90;;;;;;5094892;27;20046;-81
2024/03/02 08:31:52;;;;;;;15.00;9.70;;;9.40;99.90;;;;;;5103063;27;20072;-77
2024/03/02 08:34:40;;;;;;;16.88;9.55;;;9.60;51.20;;;;;;5092312;27;20043;-80
2024/03/02 08:37:28;;;;;;;12.68;8.95;;;9.70;1.00;;;;;;5105025;27;20040;-80
2024/03/02 08:40:16;;;;;;;15.93;9.52;;;10.20;1.00;;;;;;5102548;27;20112;-77
2024/03/02 08:43:06;;;;;;;14.52;9.90;;;10.40;1.00;;;;;;5099608;27;20091;-80
2024/03/02 08:45:53;;;;;;;17.98;9.82;;;10.80;1.00;;;;;;5095394;28;20635;-80
2024/03/02 08:48:41;;;;;;;11.45;8.90;;;11.10;99.90;;;;;;5104318;27;20049;-75
2024/03/02 08:51:31;;;;;;;11.27;8.10;;;11.20;99.90;;;;;;5112087;27;20467;-82
2024/03/02 08:54:21;;;;;;;11.35;8.10;;;11.00;99.90;;;;;;5100716;27;20031;-77
2024/03/02 08:57:10;;;;;;;11.57;7.63;;;11.20;99.90;;;;;;5113531;27;20545;-79
2024/03/02 09:00:00;;;;;;;11.73;8.07;;;11.70;99.90;;;;;;5108195;27;20043;-79
2024/03/02 09:02:48;;;;;;;8.95;6.85;;;12.10;99.90;;;;;;5095842;28;20052;-80
2024/03/02 09:05:35;;;;;;;8.50;6.70;;;11.80;99.90;;;;;;5102503;27;20479;-80
2024/03/02 09:08:25;;;;;;;10.85;6.95;;;12.40;99.90;;;;;;5109893;27;20412;-79
2024/03/02 09:11:13;;;;;;;9.63;6.22;;;12.70;99.90;;;;;;5108425;27;20039;-80
2024/03/02 09:14:00;;;;;;;8.90;6.40;;;13.20;99.90;;;;;;5120195;27;20086;-78
2024/03/02 09:16:48;;;;;;;7.07;5.75;;;13.80;99.90;;;;;;5120644;27;20055;-75
2024/03/02 09:19:35;;;;;;;7.13;5.63;;;14.20;99.90;;;;;;5096239;28;20104;-79
2024/03/02 09:22:23;;;;;;;7.22;5.38;;;14.40;99.90;;;;;;5085351;27;20115;-80
2024/03/02 09:25:10;;;;;;;7.72;5.32;;;14.20;99.90;;;;;;5102234;27;20055;-77
2024/03/02 09:27:59;;;;;;;8.77;5.05;;;13.80;99.90;;;;;;5103420;27;20054;-78
2024/03/02 09:30:47;;;;;;;4.32;3.85;;;13.90;99.90;;;;;;5104488;27;20554;-81
2024/03/02 09:33:35;;;;;;;6.25;4.88;;;14.10;99.90;;;;;;5109997;27;20036;-77
2024/03/02 09:36:24;;;;;;;7.65;4.20;;;14.40;99.90;;;;;;5106336;28;20040;-79
2024/03/02 09:39:14;;;;;;;5.65;3.88;;;15.00;99.90;;;;;;5086651;27;20130;-80
2024/03/02 09:42:04;;;;;;;5.97;4.15;;;15.10;99.90;;;;;;5107256;27;20751;-82
2024/03/02 09:44:52;;;;;;;5.35;3.40;;;15.60;99.90;;;;;;5103393;27;20043;-83
2024/03/02 09:47:40;;;;;;;4.93;3.40;;;16.00;99.90;;;;;;5092574;27;20059;-81
2024/03/02 09:50:28;;;;;;;2.63;2.42;;;16.50;90.00;;;;;;5116486;28;20049;-82
2024/03/02 09:53:16;;;;;;;4.18;2.75;;;16.70;79.20;;;;;;5113080;27;20128;-82
2024/03/02 09:56:07;;;;;;;3.20;2.78;;;17.30;54.70;;;;;;5107611;27;20738;-82
2024/03/02 09:58:55;;;;;;;2.95;2.08;;;17.50;48.70;;;;;;5085549;27;20111;-80
2024/03/02 10:01:58;;;;;;;3.03;2.50;;;17.00;33.50;;;;;;5106147;27;20040;-80
2024/03/02 10:04:48;;;;;;;5.30;2.25;;;16.70;30.80;;;;;;5084662;27;20050;-79
2024/03/02 10:07:36;;;;;;;2.58;2.38;;;16.80;26.80;;;;;;5110008;27;20039;-80
2024/03/02 10:10:39;;;;;;;2.13;1.92;;;16.50;22.90;;;;;;5104857;27;20126;-81
2024/03/02 10:13:27;;;;;;;3.78;2.78;;;16.20;17.40;;;;;;5107428;27;20043;-81
2024/03/02 10:16:17;;;;;;;2.63;1.65;;;16.40;16.60;;;;;;5108168;27;20047;-77
2024/03/02 10:19:24;;;;;;;1.65;1.55;;;17.60;13.10;;;;;;5099350;27;20050;-79
2024/03/02 10:22:11;;;;;;;4.82;1.77;;;18.10;4.40;;;;;;5110232;28;20118;-77
2024/03/02 10:24:58;;;;;;;1.60;1.40;;;18.40;2.60;;;;;;5108687;27;20047;-80
2024/03/02 10:27:50;;;;;;;1.65;1.35;;;19.30;1.00;;;;;;5101570;27;20497;-80
2024/03/02 10:30:37;;;;;;;1.65;1.45;;;19.80;1.00;;;;;;5110356;27;20051;-80
2024/03/02 10:33:25;;;;;;;2.13;1.40;;;19.90;1.00;;;;;;5086634;28;20036;-77
2024/03/02 10:36:16;;;;;;;2.17;1.80;;;19.50;1.00;;;;;;5083003;28;21284;-79
2024/03/02 10:39:05;;;;;;;1.67;1.20;;;18.50;1.00;;;;;;5096078;27;20335;-82
2024/03/02 10:41:56;;;;;;;1.50;1.20;;;17.90;1.00;;;;;;5095770;27;20066;-79
2024/03/02 10:44:45;;;;;;;2.03;1.13;;;17.80;1.00;;;;;;5114634;27;20044;-78
2024/03/02 10:47:35;;;;;;;1.45;1.30;;;18.30;1.00;;;;;;5086497;27;20173;-80
2024/03/02 10:50:24;;;;;;;1.95;1.15;;;18.70;1.00;;;;;;5108638;27;20045;-79
2024/03/02 10:53:12;;;;;;;1.15;1.08;;;18.40;1.00;;;;;;5097993;27;20055;-78
2024/03/02 10:56:02;;;;;;;1.67;0.90;;;17.70;1.00;;;;;;5122565;27;20044;-78
2024/03/02 10:58:55;;;;;;;1.08;0.90;;;17.90;1.00;;;;;;5111569;27;20058;-81
2024/03/02 11:01:43;;;;;;;1.20;0.88;;;18.50;1.00;;;;;;5114992;27;20477;-77
2024/03/02 11:04:31;;;;;;;1.00;0.90;;;18.30;1.00;;;;;;5116369;27;20043;-81
2024/03/02 11:07:22;;;;;;;0.70;0.63;;;18.40;1.00;;;;;;5106047;27;20358;-82
2024/03/02 11:10:11;;;;;;;1.45;0.95;;;18.60;1.00;;;;;;5088350;28;20130;-82
2024/03/02 11:13:04;;;;;;;0.70;0.68;;;18.80;1.00;;;;;;5107892;27;20147;-78
2024/03/02 11:15:56;;;;;;;1.25;0.88;;;19.50;1.00;;;;;;5103310;27;20040;-81
2024/03/02 11:18:44;;;;;;;0.80;0.77;;;19.70;1.00;;;;;;5085754;28;20048;-77
2024/03/02 11:21:34;;;;;;;0.90;0.63;;;19.90;1.00;;;;;;5082640;28;20051;-76
2024/03/02 11:24:24;;;;;;;0.70;0.60;;;21.10;1.00;;;;;;5086840;28;20031;-80
2024/03/02 11:27:12;;;;;;;0.60;0.60;;;21.40;1.00;;;;;;5104854;27;20106;-81
2024/03/02 11:30:01;;;;;;;0.50;0.40;;;21.40;1.00;;;;;;5108711;28;20047;-79
2024/03/02 11:32:56;;;;;;;0.60;0.50;;;21.60;1.00;;;;;;5107916;28;20261;-79
2024/03/02 11:35:47;;;;;;;0.95;0.50;;;21.00;1.00;;;;;;5110011;27;20543;-79
2024/03/02 11:38:36;;;;;;;0.77;0.70;;;20.10;1.00;;;;;;5090636;28;20044;-80
2024/03/02 11:41:24;;;;;;;0.70;0.70;;;20.20;1.00;;;;;;5099332;28;20361;-79
2024/03/02 11:44:19;;;;;;;1.58;0.80;;;20.10;1.00;;;;;;5092077;28;20103;-81
2024/03/02 11:47:10;;;;;;;1.52;0.80;;;19.70;1.00;;;;;;5106161;28;20039;-78
2024/03/02 11:49:59;;;;;;;0.95;0.90;;;19.50;1.00;;;;;;5100081;28;20067;-80
2024/03/02 11:52:49;;;;;;;0.60;0.60;;;20.00;1.00;;;;;;5095067;28;20051;-80
2024/03/02 11:55:40;;;;;;;1.35;0.90;;;20.10;1.00;;;;;;5103914;28;20508;-80
2024/03/02 11:58:36;;;;;;;1.92;1.13;;;20.90;1.00;;;;;;5090425;28;20108;-77
2024/03/02 12:01:24;;;;;;;1.25;1.10;;;20.70;1.00;;;;;;5084317;28;20044;-82
2024/03/02 12:04:13;;;;;;;2.10;0.98;;;21.20;1.00;;;;;;5088870;28;20494;-79
2024/03/02 12:07:01;;;;;;;1.70;1.00;;;22.40;1.00;;;;;;5088387;28;21210;-79
2024/03/02 12:10:01;;;;;;;1.27;0.85;;;23.20;1.00;;;;;;5092266;28;20140;-77
2024/03/02 12:13:00;;;;;;;0.40;0.40;;;22.80;1.00;;;;;;5109125;27;20043;-78
2024/03/02 12:15:55;;;;;;;0.82;0.70;;;21.60;1.00;;;;;;5118303;27;20043;-80
2024/03/02 12:18:44;;;;;;;1.02;0.50;;;22.30;1.00;;;;;;5104801;27;20136;-78
2024/03/02 12:21:33;;;;;;;1.85;0.60;;;23.40;1.00;;;;;;5112385;27;20076;-78
2024/03/02 12:24:22;;;;;;;1.40;1.05;;;23.60;1.00;;;;;;5117513;27;20043;-79
2024/03/02 12:27:11;;;;;;;0.95;0.63;;;23.80;1.00;;;;;;5104741;27;20055;-81
2024/03/02 12:29:59;;;;;;;0.60;0.60;;;23.60;1.00;;;;;;5118512;27;20177;-80
2024/03/02 12:32:47;;;;;;;1.30;1.13;;;23.60;1.00;;;;;;5098554;27;20153;-81
2024/03/02 12:35:37;;;;;;;1.80;0.80;;;23.00;1.00;;;;;;5112807;27;20047;-80
2024/03/02 12:38:26;;;;;;;0.80;0.65;;;23.20;1.00;;;;;;5099441;27;20579;-80
2024/03/02 12:41:17;;;;;;;1.27;0.80;;;23.30;1.00;;;;;;5101298;27;20050;-81
2024/03/02 12:44:05;;;;;;;0.40;0.40;;;23.50;1.00;;;;;;5116178;27;20032;-80
2024/03/02 12:46:54;;;;;;;0.50;0.50;;;22.50;1.00;;;;;;5115881;27;20047;-79
2024/03/02 12:49:46;;;;;;;0.70;0.70;;;22.00;1.00;;;;;;5112037;27;20178;-78
2024/03/02 12:52:37;;;;;;;0.70;0.60;;;22.00;1.00;;;;;;5117618;27;20150;-77
2024/03/02 12:55:29;;;;;;;1.00;0.88;;;21.90;1.00;;;;;;5088354;27;20040;-78
2024/03/02 12:58:23;;;;;;;0.77;0.50;;;21.60;1.00;;;;;;5115308;27;20107;-79
2024/03/02 13:01:11;;;;;;;0.90;0.80;;;22.20;1.00;;;;;;5118821;27;20074;-77
2024/03/02 13:04:00;;;;;;;3.05;1.10;;;23.40;1.00;;;;;;5109049;27;20156;-81
2024/03/02 13:06:49;;;;;;;0.57;0.45;;;24.10;1.00;;;;;;5120041;27;20174;-79
2024/03/02 13:09:37;;;;;;;1.77;0.75;;;24.80;1.00;;;;;;5101263;27;21133;-81
2024/03/02 13:12:25;;;;;;;0.40;0.38;;;26.00;1.00;;;;;;5119787;27;20534;-77
2024/03/02 13:15:16;;;;;;;0.63;0.40;;;26.20;1.00;;;;;;5113856;27;20040;-78
2024/03/02 13:18:07;;;;;;;0.45;0.30;;;27.80;1.00;;;;;;5115362;27;20165;-78
2024/03/02 13:20:56;;;;;;;0.60;0.45;;;28.90;1.00;;;;;;5090835;27;20122;-80
2024/03/02 13:23:43;;;;;;;0.63;0.50;;;29.20;1.00;;;;;;5111073;27;20416;-78
2024/03/02 13:26:35;;;;;;;0.50;0.30;;;27.70;1.00;;;;;;5107478;27;20130;-80
2024/03/02 13:29:23;;;;;;;0.90;0.50;;;26.70;1.00;;;;;;5096289;27;20182;-78
2024/03/02 13:32:11;;;;;;;0.50;0.50;;;26.30;1.00;;;;;;5108206;27;20132;-75
2024/03/02 13:35:00;;;;;;;0.98;0.63;;;26.90;1.00;;;;;;5108457;27;20085;-78
2024/03/02 13:37:50;;;;;;;0.93;0.60;;;26.60;1.00;;;;;;5109346;27;20052;-77
2024/03/02 13:40:37;;;;;;;0.65;0.50;;;26.50;1.00;;;;;;5089060;28;20173;-78
2024/03/02 13:43:25;;;;;;;2.15;0.90;;;26.10;1.00;;;;;;5102120;27;20051;-80
2024/03/02 13:46:13;;;;;;;2.33;0.60;;;25.90;1.00;;;;;;5118088;27;20075;-77
2024/03/02 13:49:02;;;;;;;0.43;0.43;;;25.50;1.00;;;;;;5115362;27;20052;-77
2024/03/02 13:51:50;;;;;;;0.75;0.60;;;25.00;1.00;;;;;;5111588;27;20066;-79
2024/03/02 13:54:41;;;;;;;0.60;0.50;;;25.20;1.00;;;;;;5113405;27;20043;-78
2024/03/02 13:57:30;;;;;;;0.70;0.70;;;25.30;1.00;;;;;;5123402;28;20040;-74
2024/03/02 14:00:20;;;;;;;1.10;0.88;;;25.10;1.00;;;;;;5104618;27;20036;-76
2024/03/02 14:03:07;;;;;;;0.73;0.55;;;23.90;1.00;;;;;;5092006;28;20154;-78
2024/03/02 14:05:55;;;;;;;1.45;0.80;;;23.10;1.00;;;;;;5118061;27;20134;-81
2024/03/02 14:08:44;;;;;;;1.58;0.80;;;22.80;1.00;;;;;;5114351;27;20050;-81
2024/03/02 14:11:32;;;;;;;2.15;0.70;;;22.70;1.00;;;;;;5108044;27;20043;-79
2024/03/02 14:14:20;;;;;;;3.33;0.73;;;22.60;1.00;;;;;;5107714;27;20040;-76
2024/03/02 14:17:11;;;;;;;1.60;0.82;;;23.10;1.00;;;;;;5090728;27;20054;-79
2024/03/02 14:19:59;;;;;;;3.33;1.00;;;23.20;1.00;;;;;;5101022;27;20157;-80
2024/03/02 14:22:47;;;;;;;2.55;1.23;;;21.70;1.00;;;;;;5088203;28;20078;-80
2024/03/02 14:25:35;;;;;;;1.60;1.10;;;21.80;1.00;;;;;;5091506;28;20070;-79
2024/03/02 14:28:23;;;;;;;3.08;1.10;;;21.90;1.00;;;;;;5098770;27;20035;-80
2024/03/02 14:31:31;;;;;;;1.77;1.33;;;22.30;1.00;;;;;;5100911;27;20078;-81
2024/03/02 14:34:18;;;;;;;1.13;1.02;;;22.60;1.00;;;;;;5104228;27;20133;-79
2024/03/02 14:37:06;;;;;;;2.03;1.10;;;23.00;1.00;;;;;;5107384;27;20439;-82
2024/03/02 14:39:55;;;;;;;1.60;1.23;;;23.40;1.00;;;;;;5111029;27;20040;-81
2024/03/02 14:42:47;;;;;;;1.40;1.17;;;22.80;1.00;;;;;;5101135;27;20452;-80
2024/03/02 14:45:34;;;;;;;1.17;0.95;;;21.70;1.00;;;;;;5103576;28;20050;-79